Time;durP1;ratioP1;P1;durP2;ratioP2;P2;SDS_P1;SDS_P2;PMS_P1;PMS_P2;Temp;Humidity;BMP_temperature;BMP_pressure;BME280_temperature;BME280_humidity;BME280_pressure;Samples;Min_cycle;Max_cycle;Signal;HPM_P1;HPM_P2
2024/03/08 00:02:15;;;;;;;;;;;;;;;10.06;51.46;101409.88;4974364;27;98356;-71
2024/03/08 00:04:42;;;;;;;;;;;;;;;10.05;50.90;101405.53;4958613;27;111544;-72
2024/03/08 00:07:08;;;;;;;;;;;;;;;10.03;51.46;101405.00;4991705;27;98066;-70
2024/03/08 00:09:34;;;;;;;;;;;;;;;10.02;51.13;101400.63;4985508;27;111374;-72
2024/03/08 00:12:00;;;;;;;;;;;;;;;10.01;51.03;101399.00;4943853;27;108577;-71
2024/03/08 00:14:26;;;;;;;;;;;;;;;9.99;50.84;101399.25;4988654;27;118791;-72
2024/03/08 00:16:54;;;;;;;;;;;;;;;9.97;50.98;101389.78;4968440;27;98183;-71
2024/03/08 00:19:20;;;;;;;;;;;;;;;9.97;51.04;101389.78;4965397;27;99877;-70
2024/03/08 00:21:46;;;;;;;;;;;;;;;9.94;51.19;101392.94;4979595;27;126999;-72
2024/03/08 00:24:12;;;;;;;;;;;;;;;9.92;50.89;101393.19;4978823;27;98252;-71
2024/03/08 00:26:38;;;;;;;;;;;;;;;9.91;51.31;101385.38;4981668;27;98196;-72
2024/03/08 00:29:04;;;;;;;;;;;;;;;9.89;50.93;101388.28;4982187;27;98142;-72
2024/03/08 00:31:33;;;;;;;;;;;;;;;9.88;51.25;101388.53;4980651;27;98336;-72
2024/03/08 00:33:59;;;;;;;;;;;;;;;9.84;50.83;101389.00;4979206;27;97956;-70
2024/03/08 00:36:25;;;;;;;;;;;;;;;9.84;51.38;101382.81;4964989;27;98142;-72
2024/03/08 00:38:51;;;;;;;;;;;;;;;9.82;51.01;101385.75;4966264;27;113707;-71
2024/03/08 00:41:17;;;;;;;;;;;;;;;9.79;51.00;101378.16;4986093;27;98110;-72
2024/03/08 00:43:43;;;;;;;;;;;;;;;9.78;51.01;101381.88;4969885;27;97929;-71
2024/03/08 00:46:09;;;;;;;;;;;;;;;9.76;51.08;101386.69;4977481;27;112102;-71
2024/03/08 00:48:36;;;;;;;;;;;;;;;9.75;51.14;101378.88;4982103;27;129632;-71
2024/03/08 00:51:02;;;;;;;;;;;;;;;9.72;51.02;101380.16;4982229;27;97824;-72
2024/03/08 00:53:28;;;;;;;;;;;;;;;9.71;50.91;101383.09;4982350;27;112288;-71
2024/03/08 00:55:54;;;;;;;;;;;;;;;9.68;50.93;101370.91;4982078;27;98240;-70
2024/03/08 00:58:21;;;;;;;;;;;;;;;9.67;51.66;101374.69;4968509;27;98235;-71
2024/03/08 01:00:47;;;;;;;;;;;;;;;9.65;51.38;101373.28;4983463;27;99211;-72
2024/03/08 01:03:13;;;;;;;;;;;;;;;9.64;50.82;101372.47;4973688;27;124043;-71
2024/03/08 01:05:39;;;;;;;;;;;;;;;9.62;50.52;101368.38;4978731;27;98093;-72
2024/03/08 01:08:05;;;;;;;;;;;;;;;9.61;51.25;101374.81;4999314;27;98556;-70
2024/03/08 01:10:31;;;;;;;;;;;;;;;9.60;51.46;101368.63;4999106;27;99869;-71
2024/03/08 01:12:59;;;;;;;;;;;;;;;9.57;51.16;101372.59;4955903;27;98006;-70
2024/03/08 01:15:25;;;;;;;;;;;;;;;9.56;51.05;101364.75;4977587;27;98165;-70
2024/03/08 01:17:51;;;;;;;;;;;;;;;9.54;51.10;101356.09;4963112;27;100743;-72
2024/03/08 01:20:17;;;;;;;;;;;;;;;9.53;50.84;101360.66;4986388;27;100509;-70
2024/03/08 01:22:43;;;;;;;;;;;;;;;9.51;51.03;101357.41;5004917;27;98211;-70
2024/03/08 01:25:09;;;;;;;;;;;;;;;9.51;50.91;101359.25;4981061;27;119029;-72
2024/03/08 01:27:36;;;;;;;;;;;;;;;9.49;51.16;101356.00;4966413;27;99580;-71
2024/03/08 01:30:04;;;;;;;;;;;;;;;9.48;50.88;101347.13;4968324;27;97859;-70
2024/03/08 01:32:30;;;;;;;;;;;;;;;9.45;51.34;101342.19;4978862;27;98280;-71
2024/03/08 01:34:56;;;;;;;;;;;;;;;9.45;50.80;101344.06;4967072;27;99263;-72
2024/03/08 01:37:22;;;;;;;;;;;;;;;9.44;51.07;101345.94;4976538;27;97930;-70
2024/03/08 01:39:48;;;;;;;;;;;;;;;9.42;51.37;101342.66;4973974;27;104698;-71
2024/03/08 01:42:17;;;;;;;;;;;;;;;9.41;50.88;101341.03;4967742;27;103114;-70
2024/03/08 01:44:43;;;;;;;;;;;;;;;9.40;51.18;101334.03;4979919;27;97884;-70
2024/03/08 01:47:11;;;;;;;;;;;;;;;9.38;51.16;101330.75;4981194;27;98233;-71
2024/03/08 01:49:37;;;;;;;;;;;;;;;9.39;51.20;101332.38;4983712;27;98104;-70
2024/03/08 01:52:03;;;;;;;;;;;;;;;9.38;51.35;101335.31;4954708;27;98178;-70
2024/03/08 01:54:30;;;;;;;;;;;;;;;9.36;51.54;101332.88;4984029;27;98078;-71
2024/03/08 01:56:57;;;;;;;;;;;;;;;9.34;51.31;101325.03;4983296;27;98039;-70
2024/03/08 01:59:23;;;;;;;;;;;;;;;9.34;50.89;101327.72;4982506;27;98923;-72
2024/03/08 02:01:49;;;;;;;;;;;;;;;9.33;51.26;101311.81;5003112;27;98349;-71
2024/03/08 02:04:16;;;;;;;;;;;;;;;9.32;51.18;101302.94;4970857;27;98357;-72
2024/03/08 02:06:42;;;;;;;;;;;;;;;9.32;50.49;101313.69;4968110;27;98229;-72
2024/03/08 02:09:08;;;;;;;;;;;;;;;9.32;51.24;101302.13;4966360;27;100308;-70
2024/03/08 02:11:36;;;;;;;;;;;;;;;9.30;51.21;101296.97;4979411;27;129095;-71
2024/03/08 02:14:01;;;;;;;;;;;;;;;9.30;50.51;101298.84;4964661;27;98078;-71
2024/03/08 02:16:27;;;;;;;;;;;;;;;9.29;51.18;101297.22;4980750;27;107225;-71
2024/03/08 02:18:53;;;;;;;;;;;;;;;9.28;50.80;101299.09;5008499;27;98547;-71
2024/03/08 02:21:19;;;;;;;;;;;;;;;9.28;51.21;101295.59;4973850;27;127085;-70
2024/03/08 02:23:46;;;;;;;;;;;;;;;9.27;50.69;101296.63;4998334;27;98013;-70
2024/03/08 02:26:12;;;;;;;;;;;;;;;9.25;51.04;101291.47;4961638;27;98444;-71
2024/03/08 02:28:38;;;;;;;;;;;;;;;9.25;50.89;101293.34;4993545;27;98794;-70
2024/03/08 02:31:08;;;;;;;;;;;;;;;9.25;50.90;101285.28;4978050;27;98164;-70
2024/03/08 02:33:34;;;;;;;;;;;;;;;9.24;51.25;101289.03;4981302;27;98037;-71
2024/03/08 02:36:00;;;;;;;;;;;;;;;9.23;51.18;101290.88;4965078;27;98669;-71
2024/03/08 02:38:26;;;;;;;;;;;;;;;9.24;51.16;101294.41;4964556;27;98275;-72
2024/03/08 02:40:53;;;;;;;;;;;;;;;9.23;51.01;101290.06;4964255;27;99507;-70
2024/03/08 02:43:24;;;;;;;;;;;;;;;9.22;51.28;101291.94;5001878;27;99506;-71
2024/03/08 02:45:50;;;;;;;;;;;;;;;9.21;51.27;101279.56;4986440;27;98252;-70
2024/03/08 02:48:16;;;;;;;;;;;;;;;9.21;51.26;101276.06;4981330;27;98001;-71
2024/03/08 02:50:44;;;;;;;;;;;;;;;9.20;51.34;101277.13;4986053;27;97971;-70
2024/03/08 02:53:11;;;;;;;;;;;;;;;9.19;50.81;101276.28;4988269;27;98957;-71
2024/03/08 02:55:37;;;;;;;;;;;;;;;9.19;51.25;101275.47;4968036;27;99439;-71
2024/03/08 02:58:04;;;;;;;;;;;;;;;9.17;50.49;101274.91;4966798;27;98097;-70
2024/03/08 03:00:30;;;;;;;;;;;;;;;9.18;51.18;101274.66;4980402;27;98343;-70
2024/03/08 03:02:59;;;;;;;;;;;;;;;9.16;50.88;101275.97;4981492;27;98152;-71
2024/03/08 03:05:25;;;;;;;;;;;;;;;9.16;51.36;101275.97;4983295;27;98505;-71
2024/03/08 03:07:51;;;;;;;;;;;;;;;9.16;51.36;101275.97;4986977;27;97923;-71
2024/03/08 03:10:18;;;;;;;;;;;;;;;9.14;51.23;101276.19;4964291;27;99058;-70
2024/03/08 03:12:44;;;;;;;;;;;;;;;9.14;50.85;101272.69;4988736;27;98426;-71
2024/03/08 03:15:13;;;;;;;;;;;;;;;9.13;51.57;101279.94;4997130;27;98271;-71
2024/03/08 03:17:40;;;;;;;;;;;;;;;9.13;50.92;101279.13;4969042;27;97943;-71
2024/03/08 03:20:12;;;;;;;;;;;;;;;9.12;50.98;101274.78;4952844;27;98205;-70
2024/03/08 03:22:38;;;;;;;;;;;;;;;9.12;51.38;101274.78;4967743;27;97926;-70
2024/03/08 03:25:06;;;;;;;;;;;;;;;9.10;50.59;101281.22;4964542;27;97971;-71
2024/03/08 03:27:32;;;;;;;;;;;;;;;9.10;50.93;101281.22;4951247;27;99510;-71
2024/03/08 03:29:58;;;;;;;;;;;;;;;9.09;50.68;101281.47;4960566;27;100457;-71
2024/03/08 03:32:24;;;;;;;;;;;;;;;9.07;51.18;101267.44;4979260;27;97986;-70
2024/03/08 03:34:54;;;;;;;;;;;;;;;9.07;50.81;101272.81;4964821;27;98385;-70
2024/03/08 03:37:20;;;;;;;;;;;;;;;9.06;51.25;101277.38;4955057;27;98536;-71
2024/03/08 03:39:49;;;;;;;;;;;;;;;9.06;50.90;101282.75;4945434;27;98197;-71
2024/03/08 03:42:18;;;;;;;;;;;;;;;9.05;50.79;101275.75;4962444;27;97804;-71
2024/03/08 03:44:48;;;;;;;;;;;;;;;9.05;50.82;101272.25;4962971;27;99442;-71
2024/03/08 03:47:15;;;;;;;;;;;;;;;9.05;51.28;101269.56;4938038;28;98099;-70
2024/03/08 03:49:41;;;;;;;;;;;;;;;9.04;50.96;101273.31;4959484;27;98484;-71
2024/03/08 03:52:08;;;;;;;;;;;;;;;9.03;50.67;101259.00;4946681;28;98216;-71
2024/03/08 03:54:35;;;;;;;;;;;;;;;9.03;51.04;101263.59;4962058;27;98421;-71
2024/03/08 03:57:02;;;;;;;;;;;;;;;9.01;50.72;101268.41;4962706;27;98013;-71
2024/03/08 03:59:28;;;;;;;;;;;;;;;9.01;50.82;101269.22;4942487;28;98130;-70
2024/03/08 04:01:55;;;;;;;;;;;;;;;9.00;50.63;101272.97;4963142;27;98721;-71
2024/03/08 04:04:21;;;;;;;;;;;;;;;9.00;50.58;101267.59;4947690;27;98589;-71
2024/03/08 04:06:49;;;;;;;;;;;;;;;8.98;51.13;101264.31;4966337;27;100013;-71
2024/03/08 04:09:16;;;;;;;;;;;;;;;8.99;50.81;101267.81;4963972;27;98191;-71
2024/03/08 04:11:41;;;;;;;;;;;;;;;8.96;51.07;101268.25;4959824;27;99331;-70
2024/03/08 04:14:07;;;;;;;;;;;;;;;8.96;50.80;101263.72;4975405;27;107904;-71
2024/03/08 04:16:34;;;;;;;;;;;;;;;8.96;50.92;101265.56;4963505;27;98034;-70
2024/03/08 04:19:03;;;;;;;;;;;;;;;8.96;51.01;101273.66;4982144;27;99617;-71
2024/03/08 04:21:30;;;;;;;;;;;;;;;8.94;51.02;101257.75;4969269;27;97950;-70
2024/03/08 04:23:57;;;;;;;;;;;;;;;8.93;50.68;101258.81;4986161;27;99543;-71
2024/03/08 04:26:23;;;;;;;;;;;;;;;8.93;51.06;101261.50;4964133;27;98018;-70
2024/03/08 04:28:49;;;;;;;;;;;;;;;8.93;51.33;101258.00;4981889;27;97913;-71
2024/03/08 04:31:15;;;;;;;;;;;;;;;8.92;51.01;101254.50;4979208;27;98170;-71
2024/03/08 04:33:41;;;;;;;;;;;;;;;8.91;50.84;101254.72;4965542;27;98143;-70
2024/03/08 04:36:13;;;;;;;;;;;;;;;8.91;51.20;101250.16;4978363;27;98952;-71
2024/03/08 04:38:40;;;;;;;;;;;;;;;8.90;51.36;101253.09;4981526;27;98043;-71
2024/03/08 04:41:07;;;;;;;;;;;;;;;8.89;51.21;101246.09;4977577;27;97974;-70
2024/03/08 04:43:33;;;;;;;;;;;;;;;8.88;50.56;101245.25;4983594;27;97877;-71
2024/03/08 04:45:59;;;;;;;;;;;;;;;8.88;51.07;101249.81;4980223;27;97937;-70
2024/03/08 04:48:28;;;;;;;;;;;;;;;8.87;51.36;101249.00;4979495;27;115070;-71
2024/03/08 04:50:55;;;;;;;;;;;;;;;8.87;51.01;101253.56;4965156;27;99242;-70
2024/03/08 04:53:21;;;;;;;;;;;;;;;8.85;50.89;101243.88;4964427;27;99893;-70
2024/03/08 04:55:47;;;;;;;;;;;;;;;8.84;51.39;101241.41;4985317;27;98487;-70
2024/03/08 04:58:13;;;;;;;;;;;;;;;8.83;50.48;101242.47;4984316;27;98190;-71
2024/03/08 05:00:39;;;;;;;;;;;;;;;8.82;51.01;101244.34;4960858;27;98057;-70
2024/03/08 05:03:06;;;;;;;;;;;;;;;8.82;51.12;101254.28;4980151;27;98255;-70
2024/03/08 05:05:33;;;;;;;;;;;;;;;8.81;50.71;101248.09;4980986;27;98190;-70
2024/03/08 05:07:59;;;;;;;;;;;;;;;8.80;50.97;101248.31;4977106;27;98386;-70
2024/03/08 05:10:25;;;;;;;;;;;;;;;8.81;50.88;101252.66;4976859;27;97957;-71
2024/03/08 05:12:51;;;;;;;;;;;;;;;8.79;50.81;101242.13;4986393;27;98876;-70
2024/03/08 05:15:18;;;;;;;;;;;;;;;8.80;51.11;101248.31;4965146;27;99588;-71
2024/03/08 05:17:44;;;;;;;;;;;;;;;8.79;51.38;101249.38;4998432;27;98439;-70
2024/03/08 05:20:13;;;;;;;;;;;;;;;8.78;51.14;101242.38;5000347;27;98061;-70
2024/03/08 05:22:40;;;;;;;;;;;;;;;8.77;50.84;101244.25;4973621;27;99419;-71
2024/03/08 05:25:08;;;;;;;;;;;;;;;8.76;50.63;101241.78;4963300;27;98366;-70
2024/03/08 05:27:34;;;;;;;;;;;;;;;8.76;50.89;101239.09;4979552;27;98283;-70
2024/03/08 05:30:01;;;;;;;;;;;;;;;8.75;50.63;101238.28;4979940;27;98212;-70
2024/03/08 05:32:26;;;;;;;;;;;;;;;8.75;51.07;101240.97;4975447;27;98193;-71
2024/03/08 05:34:53;;;;;;;;;;;;;;;8.75;50.73;101240.97;4976566;27;115004;-71
2024/03/08 05:37:20;;;;;;;;;;;;;;;8.75;50.85;101237.44;4975605;27;98239;-70
2024/03/08 05:39:46;;;;;;;;;;;;;;;8.75;50.96;101230.22;4976651;27;98640;-72
2024/03/08 05:42:12;;;;;;;;;;;;;;;8.75;50.83;101232.88;4992694;27;99109;-71
2024/03/08 05:44:40;;;;;;;;;;;;;;;8.76;50.69;101233.72;4978075;27;98361;-71
2024/03/08 05:47:06;;;;;;;;;;;;;;;8.77;50.45;101230.78;4995252;27;98395;-70
2024/03/08 05:49:34;;;;;;;;;;;;;;;8.78;51.19;101226.22;4956920;27;98764;-71
2024/03/08 05:52:00;;;;;;;;;;;;;;;8.79;51.21;101223.31;4980541;27;101012;-70
2024/03/08 05:54:27;;;;;;;;;;;;;;;8.80;50.97;101219.56;4980190;27;98156;-70
2024/03/08 05:56:54;;;;;;;;;;;;;;;8.82;50.46;101220.16;4968460;27;98769;-72
2024/03/08 05:59:21;;;;;;;;;;;;;;;8.83;51.00;101229.84;4976808;27;100861;-71
2024/03/08 06:01:49;;;;;;;;;;;;;;;8.85;50.83;101229.63;4962903;27;97957;-71
2024/03/08 06:04:17;;;;;;;;;;;;;;;8.89;50.99;101227.28;4991202;27;101789;-70
2024/03/08 06:06:43;;;;;;;;;;;;;;;8.91;51.03;101231.34;4979618;27;98285;-71
2024/03/08 06:09:13;;;;;;;;;;;;;;;8.94;50.40;101230.06;4995336;27;98088;-70
2024/03/08 06:11:39;;;;;;;;;;;;;;;8.95;50.34;101231.69;4976556;27;100930;-71
2024/03/08 06:14:05;;;;;;;;;;;;;;;8.97;50.31;101227.72;4966137;27;98371;-72
2024/03/08 06:16:33;;;;;;;;;;;;;;;8.98;51.11;101232.03;4960466;27;98449;-72
2024/03/08 06:19:02;;;;;;;;;;;;;;;9.02;50.26;101232.38;4977307;27;98312;-70
2024/03/08 06:21:27;;;;;;;;;;;;;;;9.04;51.05;101233.78;4982424;27;100134;-70
2024/03/08 06:23:59;;;;;;;;;;;;;;;9.06;50.49;101234.34;4987339;27;113540;-71
2024/03/08 06:26:28;;;;;;;;;;;;;;;9.10;50.47;101235.50;4967105;27;98327;-70
2024/03/08 06:28:54;;;;;;;;;;;;;;;9.13;50.78;101228.84;5001573;27;98126;-71
2024/03/08 06:31:20;;;;;;;;;;;;;;;9.17;50.67;101231.88;4984608;27;98380;-71
2024/03/08 06:33:46;;;;;;;;;;;;;;;9.21;50.39;101231.13;4981004;27;98800;-71
2024/03/08 06:36:13;;;;;;;;;;;;;;;9.25;50.64;101226.09;4967080;27;98837;-71
2024/03/08 06:38:42;;;;;;;;;;;;;;;9.30;50.86;101229.69;4967966;27;98531;-72
2024/03/08 06:41:14;;;;;;;;;;;;;;;9.36;50.23;101219.84;4993182;27;98270;-71
2024/03/08 06:43:43;;;;;;;;;;;;;;;9.42;50.25;101223.44;4977973;27;98078;-70
2024/03/08 06:46:12;;;;;;;;;;;;;;;9.48;50.54;101225.19;4976854;27;98708;-71
2024/03/08 06:48:38;;;;;;;;;;;;;;;9.54;50.93;101219.63;4984196;27;98051;-70
2024/03/08 06:51:05;;;;;;;;;;;;;;;9.61;49.92;101219.50;4976718;27;98195;-71
2024/03/08 06:53:31;;;;;;;;;;;;;;;9.68;50.17;101219.34;4965123;27;98247;-71
2024/03/08 06:55:58;;;;;;;;;;;;;;;9.73;50.07;101217.53;4963617;27;99068;-71
2024/03/08 06:58:24;;;;;;;;;;;;;;;9.80;50.03;101217.41;4982700;27;98497;-70
2024/03/08 07:00:53;;;;;;;;;;;;;;;9.87;50.14;101220.75;4979769;27;98222;-70
2024/03/08 07:03:21;;;;;;;;;;;;;;;9.97;50.44;101220.09;4976670;27;98070;-71
2024/03/08 07:05:47;;;;;;;;;;;;;;;10.04;50.11;101212.66;4981941;27;98522;-71
2024/03/08 07:08:14;;;;;;;;;;;;;;;10.11;50.32;101213.31;4964556;27;98598;-71
2024/03/08 07:10:41;;;;;;;;;;;;;;;10.20;49.96;101214.53;4976392;27;99356;-70
2024/03/08 07:13:08;;;;;;;;;;;;;;;10.30;50.01;101213.91;5001043;27;98219;-70
2024/03/08 07:15:35;;;;;;;;;;;;;;;10.38;49.81;101213.50;4978435;27;101914;-71
2024/03/08 07:18:01;;;;;;;;;;;;;;;10.55;49.89;101214.25;4995324;27;98111;-71
2024/03/08 07:20:28;;;;;;;;;;;;;;;10.71;49.72;101215.28;4965558;27;98532;-71
2024/03/08 07:22:54;;;;;;;;;;;;;;;10.78;49.55;101209.72;4991512;27;98945;-71
2024/03/08 07:25:21;;;;;;;;;;;;;;;10.86;49.80;101208.44;4966156;27;98106;-72
2024/03/08 07:27:48;;;;;;;;;;;;;;;10.95;49.51;101204.25;4980302;27;98173;-71
2024/03/08 07:30:52;;;;;;;;;;;;;;;11.06;49.84;101201.41;4997801;27;98298;-70
2024/03/08 07:33:02;;;;;;;;;;;;;;;11.24;49.46;101207.56;4985596;27;98163;-71
2024/03/08 07:35:31;;;;;;;;;;;;;;;11.38;49.44;101197.97;4980634;27;98914;-70
2024/03/08 07:37:57;;;;;;;;;;;;;;;11.58;49.26;101204.63;4980293;27;98215;-70
2024/03/08 07:40:23;;;;;;;;;;;;;;;11.79;49.23;101195.66;4999584;27;98392;-70
2024/03/08 07:42:52;;;;;;;;;;;;;;;11.99;49.01;101186.91;4981962;27;104316;-71
2024/03/08 07:45:18;;;;;;;;;;;;;;;12.21;48.87;101194.88;4978289;27;98067;-70
2024/03/08 07:47:45;;;;;;;;;;;;;;;12.49;48.56;101188.28;4999064;27;116484;-71
2024/03/08 07:50:11;;;;;;;;;;;;;;;12.78;48.76;101186.81;4999496;27;98610;-71
2024/03/08 07:52:38;;;;;;;;;;;;;;;13.04;48.16;101184.19;4966742;27;98171;-70
2024/03/08 07:55:05;;;;;;;;;;;;;;;13.27;48.10;101181.03;4978714;27;98517;-71
2024/03/08 07:57:31;;;;;;;;;;;;;;;13.59;47.87;101182.69;4976321;27;98254;-70
2024/03/08 07:59:57;;;;;;;;;;;;;;;13.90;48.02;101175.38;4978973;27;98903;-71
2024/03/08 08:02:23;;;;;;;;;;;;;;;14.28;47.83;101186.72;4970419;27;98090;-71
2024/03/08 08:04:49;;;;;;;;;;;;;;;14.71;47.51;101179.03;4961375;27;118072;-71
2024/03/08 08:07:16;;;;;;;;;;;;;;;15.22;46.99;101176.06;4987916;27;98305;-70
2024/03/08 08:09:42;;;;;;;;;;;;;;;16.04;46.64;101170.81;4990918;27;100008;-70
2024/03/08 08:12:14;;;;;;;;;;;;;;;17.06;45.62;101166.13;4958458;27;98103;-70
2024/03/08 08:14:41;;;;;;;;;;;;;;;17.94;45.26;101158.22;4964710;27;98389;-70
2024/03/08 08:17:08;;;;;;;;;;;;;;;18.82;44.88;101159.78;4976516;27;98126;-70
2024/03/08 08:19:35;;;;;;;;;;;;;;;19.69;44.36;101154.22;4975428;27;98302;-70
2024/03/08 08:22:02;;;;;;;;;;;;;;;20.70;43.95;101164.38;4982824;27;98330;-70
2024/03/08 08:24:28;;;;;;;;;;;;;;;21.88;43.41;101169.72;4979374;27;98476;-70
2024/03/08 08:26:54;;;;;;;;;;;;;;;23.18;42.56;101168.31;4979870;27;98354;-71
2024/03/08 08:29:20;;;;;;;;;;;;;;;24.19;42.49;101166.03;4980065;27;99670;-70
2024/03/08 08:31:47;;;;;;;;;;;;;;;25.12;42.14;101173.72;4973980;27;98228;-70
2024/03/08 08:34:13;;;;;;;;;;;;;;;26.19;41.75;101173.91;4963151;27;98540;-71
2024/03/08 08:36:40;;;;;;;;;;;;;;;27.51;41.27;101168.63;4977661;27;98095;-71
2024/03/08 08:39:12;;;;;;;;;;;;;;;28.54;41.08;101171.63;4974718;27;99710;-71
2024/03/08 08:41:38;;;;;;;;;;;;;;;29.78;40.10;101175.22;4965142;27;99853;-71
2024/03/08 08:44:04;;;;;;;;;;;;;;;30.91;40.23;101162.63;5000218;27;98606;-71
2024/03/08 08:46:30;;;;;;;;;;;;;;;31.69;39.86;101169.72;4980291;27;98173;-71
2024/03/08 08:48:56;;;;;;;;;;;;;;;32.35;40.18;101158.22;4979729;27;97955;-71
2024/03/08 08:51:23;;;;;;;;;;;;;;;32.98;40.14;101160.13;4979092;27;127222;-71
2024/03/08 08:53:49;;;;;;;;;;;;;;;33.56;40.02;101154.25;4978189;27;98883;-71
2024/03/08 08:56:16;;;;;;;;;;;;;;;33.97;39.73;101157.19;4963411;27;98430;-71
2024/03/08 08:58:42;;;;;;;;;;;;;;;34.31;40.12;101150.91;4975517;27;99864;-71
2024/03/08 09:01:09;;;;;;;;;;;;;;;34.58;40.05;101148.28;4995992;27;98670;-71
2024/03/08 09:03:36;;;;;;;;;;;;;;;34.93;40.37;101131.06;4952034;27;99188;-71
2024/03/08 09:06:09;;;;;;;;;;;;;;;35.22;40.31;101133.53;4958228;27;98606;-71
2024/03/08 09:08:41;;;;;;;;;;;;;;;35.59;40.33;101118.59;4972498;27;98349;-71
2024/03/08 09:11:07;;;;;;;;;;;;;;;35.93;40.06;101119.69;4976051;27;99428;-71
2024/03/08 09:13:33;;;;;;;;;;;;;;;36.19;40.38;101118.81;4949746;27;98122;-71
2024/03/08 09:16:00;;;;;;;;;;;;;;;36.63;40.09;101108.44;5001653;27;99618;-71
2024/03/08 09:18:26;;;;;;;;;;;;;;;37.13;40.02;101106.59;4979080;27;98312;-71
2024/03/08 09:20:53;;;;;;;;;;;;;;;37.39;39.66;101107.63;4979050;27;99333;-71
2024/03/08 09:23:23;;;;;;;;;;;;;;;37.49;40.35;101095.34;4978563;27;98145;-71
2024/03/08 09:25:50;;;;;;;;;;;;;;;37.47;40.45;101095.78;4980407;27;98530;-71
2024/03/08 09:28:16;;;;;;;;;;;;;;;37.40;40.53;101095.13;4978487;27;98228;-71
2024/03/08 09:30:44;;;;;;;;;;;;;;;37.31;41.01;101090.91;4978061;27;98511;-71
2024/03/08 09:33:11;;;;;;;;;;;;;;;37.26;40.67;101070.97;4979812;27;98131;-71
2024/03/08 09:35:38;;;;;;;;;;;;;;;37.32;40.56;101078.44;4989289;27;98244;-71
2024/03/08 09:38:05;;;;;;;;;;;;;;;37.44;40.90;101073.38;4995051;27;98123;-71
2024/03/08 09:40:32;;;;;;;;;;;;;;;37.81;40.41;101070.03;4960796;27;98180;-70
2024/03/08 09:42:59;;;;;;;;;;;;;;;38.30;40.37;101071.97;4977668;27;98426;-70
2024/03/08 09:45:26;;;;;;;;;;;;;;;39.16;39.33;101070.28;4970600;27;98290;-71
2024/03/08 09:47:54;;;;;;;;;;;;;;;39.97;38.57;101063.22;4977893;27;99150;-70
2024/03/08 09:50:26;;;;;;;;;;;;;;;40.61;37.71;101062.97;4963717;27;98057;-71
2024/03/08 09:52:53;;;;;;;;;;;;;;;41.06;37.39;101060.84;4973717;27;98460;-70
2024/03/08 09:55:22;;;;;;;;;;;;;;;41.30;37.63;101052.59;4992975;27;98052;-70
2024/03/08 10:00:34;;;;;;;;;;;;;;;40.51;38.63;101033.03;4987492;27;98167;-71
2024/03/08 10:03:05;;;;;;;;;;;;;;;39.85;39.22;101035.03;4967597;27;98284;-70
2024/03/08 10:05:34;;;;;;;;;;;;;;;39.07;40.23;101032.75;4965832;27;98345;-70
2024/03/08 10:08:01;;;;;;;;;;;;;;;38.47;40.89;101024.88;4961256;27;98359;-71
2024/03/08 10:10:29;;;;;;;;;;;;;;;38.01;41.17;101019.31;4963116;27;98200;-70
2024/03/08 10:12:57;;;;;;;;;;;;;;;37.62;41.41;101014.72;4967696;27;98600;-70
2024/03/08 10:15:24;;;;;;;;;;;;;;;37.25;41.96;101013.97;4990154;27;98459;-70
2024/03/08 10:17:53;;;;;;;;;;;;;;;36.93;42.07;101011.13;4980073;27;98489;-70
2024/03/08 10:20:20;;;;;;;;;;;;;;;36.63;42.20;101007.38;4976464;27;99469;-70
2024/03/08 10:22:47;;;;;;;;;;;;;;;36.37;42.55;101009.09;4961173;27;98380;-70
2024/03/08 10:25:14;;;;;;;;;;;;;;;36.13;42.69;100995.13;4962165;27;98571;-70
2024/03/08 10:27:41;;;;;;;;;;;;;;;35.93;42.92;100999.13;4963636;27;98219;-70
2024/03/08 10:30:10;;;;;;;;;;;;;;;35.76;43.22;100992.59;4966651;27;98382;-70
2024/03/08 10:32:37;;;;;;;;;;;;;;;35.61;43.35;100992.88;4968260;27;97896;-70
2024/03/08 10:35:04;;;;;;;;;;;;;;;35.50;43.34;100983.06;4931875;27;98218;-70
2024/03/08 10:37:33;;;;;;;;;;;;;;;35.42;43.44;100987.97;4967473;27;98286;-69
2024/03/08 10:40:10;;;;;;;;;;;;;;;35.35;43.45;100991.66;4950364;27;99870;-71
2024/03/08 10:42:40;;;;;;;;;;;;;;;35.31;43.28;100987.34;4939900;27;99005;-70
2024/03/08 10:45:12;;;;;;;;;;;;;;;35.28;43.52;100983.38;4967128;27;98101;-70
2024/03/08 10:47:41;;;;;;;;;;;;;;;35.27;43.37;100976.19;4967254;27;99264;-70
2024/03/08 10:50:25;;;;;;;;;;;;;;;35.27;43.44;100983.81;4984189;27;97986;-70
2024/03/08 10:52:52;;;;;;;;;;;;;;;35.27;43.48;100976.19;4959085;27;98014;-70
2024/03/08 10:55:20;;;;;;;;;;;;;;;35.32;43.34;100974.91;4965092;27;99130;-70
2024/03/08 10:57:47;;;;;;;;;;;;;;;35.37;43.45;100966.03;4961217;27;98508;-70
2024/03/08 11:00:14;;;;;;;;;;;;;;;35.46;43.25;100969.09;4961554;27;98592;-71
2024/03/08 11:02:44;;;;;;;;;;;;;;;35.54;43.14;100962.16;4979235;27;98177;-70
2024/03/08 11:05:40;;;;;;;;;;;;;;;35.64;43.43;100963.97;4961497;27;98205;-70
2024/03/08 11:08:19;;;;;;;;;;;;;;;35.71;43.18;100960.25;4981553;27;98212;-70
2024/03/08 11:10:53;;;;;;;;;;;;;;;35.69;43.11;100950.72;4973563;27;97965;-70
2024/03/08 11:13:40;;;;;;;;;;;;;;;35.63;43.27;100953.19;4974292;27;98453;-70
2024/03/08 11:16:26;;;;;;;;;;;;;;;35.53;43.14;100935.38;4946738;27;98264;-70
2024/03/08 11:19:05;;;;;;;;;;;;;;;35.46;43.11;100941.06;4959099;27;98506;-70
2024/03/08 11:21:39;;;;;;;;;;;;;;;35.41;43.19;100941.53;4948454;27;98624;-70
2024/03/08 11:24:13;;;;;;;;;;;;;;;35.36;43.21;100928.81;4962095;27;98159;-70
2024/03/08 11:26:39;;;;;;;;;;;;;;;35.32;43.31;100928.09;4937361;27;98172;-70
2024/03/08 11:29:27;;;;;;;;;;;;;;;35.27;43.20;100930.59;4940605;28;98881;-70
2024/03/08 11:32:05;;;;;;;;;;;;;;;35.20;43.08;100916.72;4993238;27;97869;-70
2024/03/08 11:34:35;;;;;;;;;;;;;;;35.14;43.07;100913.63;4973011;28;99200;-69
2024/03/08 11:37:05;;;;;;;;;;;;;;;35.10;43.06;100912.88;4963429;27;98175;-70
2024/03/08 11:39:32;;;;;;;;;;;;;;;35.03;43.17;100904.59;4947728;27;98705;-70
2024/03/08 11:42:00;;;;;;;;;;;;;;;34.93;43.22;100903.50;4979167;27;98159;-70
2024/03/08 11:44:30;;;;;;;;;;;;;;;34.78;43.41;100896.53;4948848;27;98269;-70
2024/03/08 11:46:57;;;;;;;;;;;;;;;34.62;43.38;100897.97;4967254;27;98345;-70
2024/03/08 11:49:25;;;;;;;;;;;;;;;34.44;43.39;100898.22;4957728;27;98470;-70
2024/03/08 11:51:53;;;;;;;;;;;;;;;34.28;43.46;100888.88;4962266;27;98436;-70
2024/03/08 11:54:19;;;;;;;;;;;;;;;34.07;43.67;100885.09;4955714;27;98451;-70
2024/03/08 11:56:48;;;;;;;;;;;;;;;33.90;43.59;100891.69;4962005;27;100135;-70
2024/03/08 11:59:17;;;;;;;;;;;;;;;33.75;43.55;100893.84;4941993;28;98461;-70
2024/03/08 12:01:44;;;;;;;;;;;;;;;33.63;43.81;100886.78;4940196;27;98404;-70
2024/03/08 12:04:13;;;;;;;;;;;;;;;33.52;43.72;100891.69;4957428;28;101412;-70
2024/03/08 12:06:40;;;;;;;;;;;;;;;33.39;43.64;100877.44;4948353;27;98589;-70
2024/03/08 12:09:10;;;;;;;;;;;;;;;33.24;44.03;100876.75;4954680;28;98919;-70
2024/03/08 12:11:37;;;;;;;;;;;;;;;33.08;43.81;100881.31;4945843;27;98245;-70
2024/03/08 12:14:06;;;;;;;;;;;;;;;32.89;44.01;100883.41;4944434;28;98492;-69
2024/03/08 12:16:33;;;;;;;;;;;;;;;32.71;44.49;100868.81;4944203;27;97987;-70
2024/03/08 12:19:00;;;;;;;;;;;;;;;32.49;44.52;100874.53;4971735;27;98221;-69
2024/03/08 12:21:29;;;;;;;;;;;;;;;32.27;44.75;100861.88;4991060;27;98339;-70
2024/03/08 12:24:08;;;;;;;;;;;;;;;32.04;44.99;100872.75;4952550;27;98361;-70
2024/03/08 12:26:36;;;;;;;;;;;;;;;31.75;45.12;100856.91;4980787;27;98340;-70
2024/03/08 12:29:26;;;;;;;;;;;;;;;31.52;45.28;100856.56;4979768;27;98077;-70
2024/03/08 12:32:00;;;;;;;;;;;;;;;31.23;45.38;100856.56;4957594;27;98478;-70
2024/03/08 12:34:28;;;;;;;;;;;;;;;30.99;45.34;100849.81;4977000;27;98187;-70
2024/03/08 12:36:57;;;;;;;;;;;;;;;30.75;45.36;100845.84;4963954;27;98292;-70
2024/03/08 12:39:26;;;;;;;;;;;;;;;30.51;45.36;100839.03;4977071;27;99006;-70
2024/03/08 12:41:59;;;;;;;;;;;;;;;30.28;45.66;100835.78;4966017;27;98603;-69
2024/03/08 12:44:28;;;;;;;;;;;;;;;30.06;45.69;100837.66;4982323;27;98386;-70
2024/03/08 12:46:54;;;;;;;;;;;;;;;29.84;45.76;100831.25;4959458;27;100317;-70